createdAt,value
2022-10-17T00:03:21.345Z,11.30
2022-10-17T00:08:24.790Z,11.20
2022-10-17T00:18:56.567Z,10.90
2022-10-17T00:24:01.081Z,10.80
2022-10-17T00:29:05.795Z,10.70
2022-10-17T00:34:09.182Z,10.70
2022-10-17T00:39:12.438Z,10.60
2022-10-17T00:44:49.016Z,10.60
2022-10-17T00:49:53.822Z,10.70
2022-10-17T00:55:00.912Z,10.80
2022-10-17T01:00:08.023Z,10.80
2022-10-17T01:05:13.572Z,10.70
2022-10-17T01:10:17.157Z,10.70
2022-10-17T01:15:30.488Z,10.70
2022-10-17T01:21:14.389Z,10.70
2022-10-17T01:26:27.864Z,10.70
2022-10-17T01:31:42.986Z,10.70
2022-10-17T01:36:52.271Z,10.60
2022-10-17T01:42:02.476Z,10.50
2022-10-17T01:47:11.334Z,10.50
2022-10-17T01:52:19.752Z,10.50
2022-10-17T01:57:29.905Z,10.40
2022-10-17T02:02:36.156Z,10.40
2022-10-17T02:07:39.419Z,10.30
2022-10-17T02:12:51.178Z,10.30
2022-10-17T02:18:06.001Z,10.40
2022-10-17T02:23:14.667Z,10.50
2022-10-17T02:28:21.823Z,10.30
2022-10-17T02:33:29.936Z,10.20
2022-10-17T02:38:33.753Z,10.10
2022-10-17T02:43:39.016Z,10.00
2022-10-17T02:48:48.615Z,9.90
2022-10-17T02:54:01.247Z,9.80
2022-10-17T02:59:06.706Z,9.70
2022-10-17T03:04:16.460Z,9.70
2022-10-17T03:09:19.833Z,9.50
2022-10-17T03:14:23.038Z,9.40
2022-10-17T03:19:27.577Z,9.30
2022-10-17T03:24:30.830Z,9.10
2022-10-17T03:29:34.105Z,9.00
2022-10-17T03:34:38.747Z,9.00
2022-10-17T03:39:41.987Z,8.90
2022-10-17T03:44:45.234Z,9.00
2022-10-17T03:49:49.910Z,9.10
2022-10-17T03:54:53.578Z,9.20
2022-10-17T03:59:57.302Z,9.10
2022-10-17T04:05:02.048Z,9.10
2022-10-17T04:10:06.208Z,9.00
2022-10-17T04:15:10.664Z,8.90
2022-10-17T04:20:15.355Z,8.90
2022-10-17T04:25:19.054Z,8.90
2022-10-17T04:30:22.298Z,8.90
2022-10-17T04:35:27.232Z,8.90
2022-10-17T04:40:30.405Z,9.10
2022-10-17T04:45:33.633Z,9.00
2022-10-17T04:50:38.305Z,9.00
2022-10-17T04:55:41.711Z,9.00
2022-10-17T05:00:45.422Z,8.90
2022-10-17T05:05:50.220Z,8.90
2022-10-17T05:10:57.600Z,8.90
2022-10-17T05:16:02.847Z,8.80
2022-10-17T05:21:14.295Z,8.80
2022-10-17T05:26:19.280Z,8.80
2022-10-17T05:31:23.643Z,8.70
2022-10-17T05:36:28.480Z,8.70
2022-10-17T05:41:33.731Z,8.80
2022-10-17T05:46:40.252Z,8.70
2022-10-17T05:51:45.205Z,8.70
2022-10-17T05:56:53.096Z,8.70
2022-10-17T06:01:59.034Z,8.60
2022-10-17T06:07:03.705Z,8.60
2022-10-17T06:12:07.676Z,8.70
2022-10-17T06:17:15.753Z,8.90
2022-10-17T06:22:20.934Z,9.10
2022-10-17T06:27:24.358Z,9.40
2022-10-17T06:32:29.074Z,9.60
2022-10-17T06:43:03.040Z,9.80
2022-10-17T06:48:07.683Z,9.80
2022-10-17T06:53:12.432Z,9.90
2022-10-17T06:58:15.823Z,10.10
2022-10-17T07:03:19.097Z,10.60
2022-10-17T07:08:25.450Z,10.90
2022-10-17T07:13:29.565Z,11.00
2022-10-17T07:18:36.487Z,11.30
2022-10-17T07:23:41.815Z,11.50
2022-10-17T07:28:59.749Z,11.80
2022-10-17T07:34:07.574Z,12.00
2022-10-17T07:39:17.153Z,12.10
2022-10-17T07:44:23.610Z,12.30
2022-10-17T07:49:28.130Z,12.60
2022-10-17T08:00:03.751Z,13.70
2022-10-17T08:05:08.100Z,14.40
2022-10-17T08:10:14.487Z,15.10
2022-10-17T08:15:18.893Z,15.60
2022-10-17T08:20:23.341Z,15.80
2022-10-17T08:25:28.124Z,16.60
2022-10-17T08:30:36.351Z,18.60
2022-10-17T08:35:39.718Z,21.80
2022-10-17T08:40:44.549Z,22.70
2022-10-17T08:45:53.075Z,22.90
2022-10-17T08:51:01.016Z,22.40
2022-10-17T08:56:19.561Z,23.00
2022-10-17T09:01:45.542Z,22.60
2022-10-17T09:06:56.903Z,23.20
2022-10-17T09:12:16.279Z,23.90
2022-10-17T09:17:29.359Z,24.20
2022-10-17T09:22:48.919Z,23.60
2022-10-17T09:27:57.816Z,23.90
2022-10-17T09:33:01.148Z,25.00
2022-10-17T09:38:04.925Z,25.30
2022-10-17T09:43:12.473Z,24.50
2022-10-17T09:48:23.505Z,24.20
2022-10-17T09:53:33.352Z,23.50
2022-10-17T09:58:46.085Z,22.90
2022-10-17T10:03:50.000Z,22.40
2022-10-17T10:08:55.318Z,22.60
2022-10-17T10:14:13.787Z,22.50
2022-10-17T10:19:22.886Z,22.70
2022-10-17T10:24:30.834Z,22.90
2022-10-17T10:29:38.714Z,23.00
2022-10-17T10:34:54.927Z,23.20
2022-10-17T10:40:00.578Z,22.90
2022-10-17T10:45:29.452Z,22.90
2022-10-17T10:50:45.516Z,22.90
2022-10-17T10:55:52.817Z,22.80
2022-10-17T11:00:58.855Z,22.70
2022-10-17T11:06:07.355Z,22.80
2022-10-17T11:11:19.979Z,23.00
2022-10-17T11:16:34.134Z,22.70
2022-10-17T11:21:44.870Z,22.60
2022-10-17T11:26:55.152Z,22.60
2022-10-17T11:32:04.553Z,23.00
2022-10-17T11:37:16.738Z,23.20
2022-10-17T11:42:25.940Z,23.30
2022-10-17T11:47:38.079Z,23.40
2022-10-17T11:52:55.819Z,23.30
2022-10-17T11:58:18.390Z,23.60
2022-10-17T12:03:38.264Z,23.60
2022-10-17T12:08:49.939Z,23.80
2022-10-17T12:13:56.449Z,23.80
2022-10-17T12:19:35.981Z,23.70
2022-10-17T12:24:43.615Z,23.60
2022-10-17T12:29:48.444Z,23.80
2022-10-17T12:34:59.497Z,23.90
2022-10-17T12:40:04.690Z,23.70
2022-10-17T12:45:45.793Z,23.80
2022-10-17T12:56:41.444Z,23.90
2022-10-17T13:01:49.296Z,23.80
2022-10-17T13:06:55.459Z,23.90
2022-10-17T13:12:14.511Z,23.90
2022-10-17T13:17:28.490Z,23.90
2022-10-17T13:22:34.502Z,23.80
2022-10-17T13:27:39.493Z,23.80
2022-10-17T13:32:48.756Z,23.80
2022-10-17T13:37:54.075Z,23.70
2022-10-17T13:43:02.234Z,23.50
2022-10-17T13:48:20.785Z,23.40
2022-10-17T13:53:31.047Z,23.30
2022-10-17T13:58:45.645Z,23.40
2022-10-17T14:04:02.238Z,23.30
2022-10-17T14:09:22.353Z,23.20
2022-10-17T14:14:37.504Z,23.10
2022-10-17T14:20:06.577Z,22.90
2022-10-17T14:25:32.052Z,22.90
2022-10-17T14:30:55.894Z,22.90
2022-10-17T14:36:02.098Z,22.90
2022-10-17T14:46:36.995Z,22.90
2022-10-17T14:51:50.610Z,22.80
2022-10-17T14:57:15.999Z,22.70
2022-10-17T15:02:22.133Z,22.70
2022-10-17T15:07:25.708Z,22.50
2022-10-17T15:12:29.271Z,22.40
2022-10-17T15:17:35.375Z,22.80
2022-10-17T15:22:39.190Z,23.80
2022-10-17T15:27:42.472Z,23.80
2022-10-17T15:32:47.304Z,23.50
2022-10-17T15:37:51.359Z,23.20
2022-10-17T15:42:54.582Z,22.60
2022-10-17T15:48:05.322Z,21.90
2022-10-17T15:53:13.033Z,21.30
2022-10-17T15:58:17.319Z,20.70
2022-10-17T16:08:25.574Z,19.90
2022-10-17T16:13:28.874Z,19.40
2022-10-17T16:18:33.556Z,19.00
2022-10-17T16:23:40.980Z,18.60
2022-10-17T16:28:46.246Z,18.20
2022-10-17T16:33:52.797Z,17.90
2022-10-17T16:38:56.221Z,17.50
2022-10-17T16:44:01.881Z,17.20
2022-10-17T16:49:07.388Z,16.80
2022-10-17T16:54:10.775Z,16.60
2022-10-17T16:59:19.100Z,16.40
2022-10-17T17:04:25.942Z,16.20
2022-10-17T17:09:29.651Z,16.00
2022-10-17T17:14:33.018Z,15.80
2022-10-17T17:19:37.742Z,15.70
2022-10-17T17:24:41.041Z,15.60
2022-10-17T17:29:44.554Z,15.40
2022-10-17T17:34:50.200Z,15.30
2022-10-17T17:39:53.454Z,15.20
2022-10-17T17:44:56.686Z,15.30
2022-10-17T17:50:04.225Z,15.50
2022-10-17T17:55:08.635Z,15.50
2022-10-17T18:00:13.055Z,15.20
2022-10-17T18:05:18.083Z,14.90
2022-10-17T18:10:22.380Z,14.80
2022-10-17T18:20:54.687Z,14.50
2022-10-17T18:26:00.958Z,14.40
2022-10-17T18:36:37.771Z,14.30
2022-10-17T18:41:41.067Z,14.30
2022-10-17T18:51:50.697Z,14.30
2022-10-17T18:56:55.649Z,14.30
2022-10-17T19:02:03.101Z,14.10
2022-10-17T19:07:08.026Z,13.80
2022-10-17T19:12:11.725Z,13.70
2022-10-17T19:17:15.070Z,13.60
2022-10-17T19:22:20.721Z,13.50
2022-10-17T19:27:24.040Z,13.50
2022-10-17T19:32:28.514Z,13.60
2022-10-17T19:37:34.368Z,13.40
2022-10-17T19:42:37.666Z,13.30
2022-10-17T19:47:40.970Z,13.20
2022-10-17T19:52:46.748Z,13.20
2022-10-17T19:57:50.097Z,13.00
2022-10-17T20:02:53.498Z,12.90
2022-10-17T20:07:59.278Z,12.80
2022-10-17T20:13:02.952Z,12.70
2022-10-17T20:18:08.377Z,12.70
2022-10-17T20:23:13.041Z,12.70
2022-10-17T20:28:16.550Z,12.60
2022-10-17T20:33:20.552Z,12.50
2022-10-17T20:38:26.722Z,12.30
2022-10-17T20:43:29.951Z,12.20
2022-10-17T20:48:33.443Z,12.20
2022-10-17T20:53:38.428Z,12.10
2022-10-17T20:58:41.973Z,12.00
2022-10-17T21:03:46.657Z,12.00
2022-10-17T21:08:54.272Z,12.00
2022-10-17T21:13:58.883Z,12.00
2022-10-17T21:19:02.834Z,12.00
2022-10-17T21:24:12.684Z,12.00
2022-10-17T21:29:15.995Z,12.10
2022-10-17T21:34:22.308Z,12.10
2022-10-17T21:39:27.012Z,12.10
2022-10-17T21:44:31.481Z,12.20
2022-10-17T21:49:35.148Z,12.10
2022-10-17T21:54:40.069Z,12.10
2022-10-17T21:59:43.509Z,11.90
2022-10-17T22:04:46.791Z,11.90
2022-10-17T22:09:52.803Z,11.70
2022-10-17T22:14:56.072Z,11.60
2022-10-17T22:19:59.499Z,11.50
2022-10-17T22:25:04.823Z,11.40
2022-10-17T22:30:09.371Z,11.40
2022-10-17T22:35:14.276Z,11.30
2022-10-17T22:40:19.038Z,11.30
2022-10-17T22:45:22.375Z,11.30
2022-10-17T22:50:27.494Z,11.20
2022-10-17T22:55:32.119Z,11.20
2022-10-17T23:00:35.452Z,11.10
2022-10-17T23:05:38.800Z,11.00
2022-10-17T23:10:43.449Z,11.00
2022-10-17T23:15:46.735Z,11.00
2022-10-17T23:20:50.479Z,11.00
2022-10-17T23:25:55.209Z,11.00
2022-10-17T23:30:58.591Z,10.90
2022-10-17T23:36:05.307Z,10.80
2022-10-17T23:41:10.531Z,10.70
2022-10-17T23:46:15.087Z,10.70
2022-10-17T23:51:18.724Z,10.70
2022-10-17T23:56:23.302Z,10.80
